sensor_id;sensor_type;location;lat;lon;timestamp;P1;durP1;ratioP1;P2;durP2;ratioP2
53694;SDS011;39588;51.124;7.190;2022-07-26T00:01:07;0.10;;;0.10;;
53694;SDS011;39588;51.124;7.190;2022-07-26T00:03:32;0.20;;;0.20;;
53694;SDS011;39588;51.124;7.190;2022-07-26T00:05:58;0.10;;;0.10;;
53694;SDS011;39588;51.124;7.190;2022-07-26T00:08:24;0.30;;;0.30;;
53694;SDS011;39588;51.124;7.190;2022-07-26T00:10:50;0.20;;;0.20;;
53694;SDS011;39588;51.124;7.190;2022-07-26T00:13:17;0.20;;;0.20;;
53694;SDS011;39588;51.124;7.190;2022-07-26T00:15:44;0.30;;;0.30;;
53694;SDS011;39588;51.124;7.190;2022-07-26T00:18:11;0.40;;;0.40;;
53694;SDS011;39588;51.124;7.190;2022-07-26T00:20:37;0.10;;;0.10;;
53694;SDS011;39588;51.124;7.190;2022-07-26T00:23:03;0.60;;;0.60;;
53694;SDS011;39588;51.124;7.190;2022-07-26T00:25:29;0.20;;;0.20;;
53694;SDS011;39588;51.124;7.190;2022-07-26T00:27:55;0.30;;;0.30;;
53694;SDS011;39588;51.124;7.190;2022-07-26T00:30:20;0.20;;;0.20;;
53694;SDS011;39588;51.124;7.190;2022-07-26T00:32:46;0.27;;;0.27;;
53694;SDS011;39588;51.124;7.190;2022-07-26T00:35:12;0.40;;;0.40;;
53694;SDS011;39588;51.124;7.190;2022-07-26T00:37:38;0.20;;;0.20;;
53694;SDS011;39588;51.124;7.190;2022-07-26T00:40:04;1.03;;;1.03;;
53694;SDS011;39588;51.124;7.190;2022-07-26T00:42:32;1.30;;;0.67;;
53694;SDS011;39588;51.124;7.190;2022-07-26T00:44:57;0.10;;;0.10;;
53694;SDS011;39588;51.124;7.190;2022-07-26T00:47:23;0.13;;;0.13;;
53694;SDS011;39588;51.124;7.190;2022-07-26T00:49:49;0.43;;;0.43;;
53694;SDS011;39588;51.124;7.190;2022-07-26T00:52:14;2.93;;;1.43;;
53694;SDS011;39588;51.124;7.190;2022-07-26T00:54:42;0.10;;;0.10;;
53694;SDS011;39588;51.124;7.190;2022-07-26T00:57:09;5.87;;;0.80;;
53694;SDS011;39588;51.124;7.190;2022-07-26T00:59:37;0.13;;;0.13;;
53694;SDS011;39588;51.124;7.190;2022-07-26T01:02:03;0.20;;;0.20;;
53694;SDS011;39588;51.124;7.190;2022-07-26T01:04:30;0.97;;;0.97;;
53694;SDS011;39588;51.124;7.190;2022-07-26T01:06:56;0.10;;;0.10;;
53694;SDS011;39588;51.124;7.190;2022-07-26T01:09:22;0.10;;;0.10;;
53694;SDS011;39588;51.124;7.190;2022-07-26T01:11:48;0.27;;;0.27;;
53694;SDS011;39588;51.124;7.190;2022-07-26T01:14:14;0.20;;;0.20;;
53694;SDS011;39588;51.124;7.190;2022-07-26T01:16:43;0.20;;;0.20;;
53694;SDS011;39588;51.124;7.190;2022-07-26T01:19:09;1.50;;;0.47;;
53694;SDS011;39588;51.124;7.190;2022-07-26T01:21:34;0.30;;;0.30;;
53694;SDS011;39588;51.124;7.190;2022-07-26T01:24:00;0.30;;;0.30;;
53694;SDS011;39588;51.124;7.190;2022-07-26T01:26:26;0.20;;;0.20;;
53694;SDS011;39588;51.124;7.190;2022-07-26T01:28:52;0.30;;;0.30;;
53694;SDS011;39588;51.124;7.190;2022-07-26T01:31:18;0.37;;;0.37;;
53694;SDS011;39588;51.124;7.190;2022-07-26T01:33:43;0.07;;;0.07;;
53694;SDS011;39588;51.124;7.190;2022-07-26T01:36:09;0.60;;;0.50;;
53694;SDS011;39588;51.124;7.190;2022-07-26T01:38:36;0.00;;;0.00;;
53694;SDS011;39588;51.124;7.190;2022-07-26T01:41:02;0.63;;;0.13;;
53694;SDS011;39588;51.124;7.190;2022-07-26T01:43:28;1.70;;;0.43;;
53694;SDS011;39588;51.124;7.190;2022-07-26T01:45:53;0.10;;;0.10;;
53694;SDS011;39588;51.124;7.190;2022-07-26T01:48:19;0.10;;;0.10;;
53694;SDS011;39588;51.124;7.190;2022-07-26T01:50:45;0.40;;;0.40;;
53694;SDS011;39588;51.124;7.190;2022-07-26T01:53:10;0.20;;;0.20;;
53694;SDS011;39588;51.124;7.190;2022-07-26T01:55:36;0.63;;;0.20;;
53694;SDS011;39588;51.124;7.190;2022-07-26T01:58:03;0.17;;;0.17;;
53694;SDS011;39588;51.124;7.190;2022-07-26T02:00:29;0.43;;;0.43;;
53694;SDS011;39588;51.124;7.190;2022-07-26T02:02:56;0.20;;;0.20;;
53694;SDS011;39588;51.124;7.190;2022-07-26T02:05:21;0.20;;;0.20;;
53694;SDS011;39588;51.124;7.190;2022-07-26T02:07:47;0.17;;;0.17;;
53694;SDS011;39588;51.124;7.190;2022-07-26T02:10:13;0.50;;;0.50;;
53694;SDS011;39588;51.124;7.190;2022-07-26T02:12:40;0.77;;;0.60;;
53694;SDS011;39588;51.124;7.190;2022-07-26T02:15:06;0.30;;;0.30;;
53694;SDS011;39588;51.124;7.190;2022-07-26T02:17:32;0.20;;;0.20;;
53694;SDS011;39588;51.124;7.190;2022-07-26T02:19:58;0.20;;;0.20;;
53694;SDS011;39588;51.124;7.190;2022-07-26T02:22:23;0.67;;;0.67;;
53694;SDS011;39588;51.124;7.190;2022-07-26T02:24:49;0.30;;;0.30;;
53694;SDS011;39588;51.124;7.190;2022-07-26T02:27:15;0.47;;;0.47;;
53694;SDS011;39588;51.124;7.190;2022-07-26T02:29:41;0.20;;;0.20;;
53694;SDS011;39588;51.124;7.190;2022-07-26T02:32:07;0.10;;;0.10;;
53694;SDS011;39588;51.124;7.190;2022-07-26T02:34:33;0.13;;;0.10;;
53694;SDS011;39588;51.124;7.190;2022-07-26T02:36:58;0.20;;;0.20;;
53694;SDS011;39588;51.124;7.190;2022-07-26T02:39:25;1.20;;;0.77;;
53694;SDS011;39588;51.124;7.190;2022-07-26T02:41:54;0.30;;;0.30;;
53694;SDS011;39588;51.124;7.190;2022-07-26T02:44:24;0.20;;;0.20;;
53694;SDS011;39588;51.124;7.190;2022-07-26T02:46:50;0.27;;;0.27;;
53694;SDS011;39588;51.124;7.190;2022-07-26T02:49:17;0.13;;;0.13;;
53694;SDS011;39588;51.124;7.190;2022-07-26T02:51:43;2.63;;;1.63;;
53694;SDS011;39588;51.124;7.190;2022-07-26T02:54:08;0.17;;;0.17;;
53694;SDS011;39588;51.124;7.190;2022-07-26T02:56:34;0.17;;;0.17;;
53694;SDS011;39588;51.124;7.190;2022-07-26T02:59:00;0.20;;;0.20;;
53694;SDS011;39588;51.124;7.190;2022-07-26T03:01:25;0.30;;;0.30;;
53694;SDS011;39588;51.124;7.190;2022-07-26T03:03:51;0.30;;;0.30;;
53694;SDS011;39588;51.124;7.190;2022-07-26T03:06:17;0.20;;;0.20;;
53694;SDS011;39588;51.124;7.190;2022-07-26T03:08:43;0.10;;;0.10;;
53694;SDS011;39588;51.124;7.190;2022-07-26T03:11:09;0.20;;;0.20;;
53694;SDS011;39588;51.124;7.190;2022-07-26T03:13:35;0.27;;;0.27;;
53694;SDS011;39588;51.124;7.190;2022-07-26T03:16:00;0.20;;;0.20;;
53694;SDS011;39588;51.124;7.190;2022-07-26T03:18:26;0.50;;;0.50;;
53694;SDS011;39588;51.124;7.190;2022-07-26T03:20:52;0.20;;;0.20;;
53694;SDS011;39588;51.124;7.190;2022-07-26T03:23:18;0.30;;;0.30;;
53694;SDS011;39588;51.124;7.190;2022-07-26T03:25:43;0.20;;;0.20;;
53694;SDS011;39588;51.124;7.190;2022-07-26T03:28:09;0.33;;;0.33;;
53694;SDS011;39588;51.124;7.190;2022-07-26T03:30:35;3.80;;;0.77;;
53694;SDS011;39588;51.124;7.190;2022-07-26T03:33:01;0.20;;;0.20;;
53694;SDS011;39588;51.124;7.190;2022-07-26T03:35:26;0.13;;;0.13;;
53694;SDS011;39588;51.124;7.190;2022-07-26T03:37:52;0.10;;;0.10;;
53694;SDS011;39588;51.124;7.190;2022-07-26T03:40:18;0.20;;;0.20;;
53694;SDS011;39588;51.124;7.190;2022-07-26T03:42:44;0.63;;;0.63;;
53694;SDS011;39588;51.124;7.190;2022-07-26T03:45:11;0.57;;;0.57;;
53694;SDS011;39588;51.124;7.190;2022-07-26T03:47:38;0.37;;;0.37;;
53694;SDS011;39588;51.124;7.190;2022-07-26T03:50:04;0.00;;;0.00;;
53694;SDS011;39588;51.124;7.190;2022-07-26T03:52:31;0.40;;;0.40;;
53694;SDS011;39588;51.124;7.190;2022-07-26T03:54:57;0.37;;;0.37;;
53694;SDS011;39588;51.124;7.190;2022-07-26T03:57:22;0.90;;;0.90;;
53694;SDS011;39588;51.124;7.190;2022-07-26T03:59:48;0.20;;;0.20;;
53694;SDS011;39588;51.124;7.190;2022-07-26T04:02:14;0.27;;;0.27;;
53694;SDS011;39588;51.124;7.190;2022-07-26T04:04:40;0.30;;;0.30;;
53694;SDS011;39588;51.124;7.190;2022-07-26T04:07:05;0.20;;;0.20;;
53694;SDS011;39588;51.124;7.190;2022-07-26T04:09:31;0.30;;;0.30;;
53694;SDS011;39588;51.124;7.190;2022-07-26T04:11:56;0.40;;;0.40;;
53694;SDS011;39588;51.124;7.190;2022-07-26T04:14:22;3.40;;;1.07;;
53694;SDS011;39588;51.124;7.190;2022-07-26T04:16:48;0.30;;;0.30;;
53694;SDS011;39588;51.124;7.190;2022-07-26T04:19:13;0.20;;;0.20;;
53694;SDS011;39588;51.124;7.190;2022-07-26T04:21:39;0.93;;;0.60;;
53694;SDS011;39588;51.124;7.190;2022-07-26T04:24:05;1.20;;;0.60;;
53694;SDS011;39588;51.124;7.190;2022-07-26T04:26:31;1.20;;;0.50;;
53694;SDS011;39588;51.124;7.190;2022-07-26T04:28:56;0.40;;;0.40;;
53694;SDS011;39588;51.124;7.190;2022-07-26T04:31:22;0.63;;;0.63;;
53694;SDS011;39588;51.124;7.190;2022-07-26T04:33:48;1.20;;;1.10;;
53694;SDS011;39588;51.124;7.190;2022-07-26T04:36:14;0.40;;;0.40;;
53694;SDS011;39588;51.124;7.190;2022-07-26T04:38:40;2.67;;;1.80;;
53694;SDS011;39588;51.124;7.190;2022-07-26T04:41:05;1.53;;;0.97;;
53694;SDS011;39588;51.124;7.190;2022-07-26T04:43:31;1.50;;;0.70;;
53694;SDS011;39588;51.124;7.190;2022-07-26T04:45:57;0.30;;;0.30;;
53694;SDS011;39588;51.124;7.190;2022-07-26T04:48:22;0.70;;;0.70;;
53694;SDS011;39588;51.124;7.190;2022-07-26T04:50:48;0.20;;;0.20;;
53694;SDS011;39588;51.124;7.190;2022-07-26T04:53:14;0.30;;;0.30;;
53694;SDS011;39588;51.124;7.190;2022-07-26T04:55:40;1.33;;;0.77;;
53694;SDS011;39588;51.124;7.190;2022-07-26T04:58:06;2.40;;;0.90;;
53694;SDS011;39588;51.124;7.190;2022-07-26T05:00:32;2.10;;;0.77;;
53694;SDS011;39588;51.124;7.190;2022-07-26T05:02:59;0.90;;;0.83;;
53694;SDS011;39588;51.124;7.190;2022-07-26T05:05:26;0.40;;;0.40;;
53694;SDS011;39588;51.124;7.190;2022-07-26T05:07:55;0.27;;;0.27;;
53694;SDS011;39588;51.124;7.190;2022-07-26T05:10:26;0.40;;;0.40;;
53694;SDS011;39588;51.124;7.190;2022-07-26T05:12:56;1.50;;;0.70;;
53694;SDS011;39588;51.124;7.190;2022-07-26T05:15:22;3.60;;;0.87;;
53694;SDS011;39588;51.124;7.190;2022-07-26T05:17:47;1.10;;;0.43;;
53694;SDS011;39588;51.124;7.190;2022-07-26T05:20:14;1.63;;;1.33;;
53694;SDS011;39588;51.124;7.190;2022-07-26T05:22:40;0.40;;;0.40;;
53694;SDS011;39588;51.124;7.190;2022-07-26T05:25:07;1.00;;;0.50;;
53694;SDS011;39588;51.124;7.190;2022-07-26T05:27:33;0.53;;;0.37;;
53694;SDS011;39588;51.124;7.190;2022-07-26T05:29:58;0.37;;;0.37;;
53694;SDS011;39588;51.124;7.190;2022-07-26T05:32:24;0.33;;;0.33;;
53694;SDS011;39588;51.124;7.190;2022-07-26T05:34:50;1.33;;;0.83;;
53694;SDS011;39588;51.124;7.190;2022-07-26T05:37:15;0.43;;;0.43;;
53694;SDS011;39588;51.124;7.190;2022-07-26T05:39:41;0.50;;;0.50;;
53694;SDS011;39588;51.124;7.190;2022-07-26T05:42:06;0.30;;;0.30;;
53694;SDS011;39588;51.124;7.190;2022-07-26T05:44:32;0.53;;;0.53;;
53694;SDS011;39588;51.124;7.190;2022-07-26T05:46:58;0.10;;;0.10;;
53694;SDS011;39588;51.124;7.190;2022-07-26T05:49:23;0.27;;;0.27;;
53694;SDS011;39588;51.124;7.190;2022-07-26T05:51:50;0.50;;;0.50;;
53694;SDS011;39588;51.124;7.190;2022-07-26T05:54:16;0.97;;;0.97;;
53694;SDS011;39588;51.124;7.190;2022-07-26T05:56:48;0.50;;;0.50;;
53694;SDS011;39588;51.124;7.190;2022-07-26T05:59:14;1.73;;;0.57;;
53694;SDS011;39588;51.124;7.190;2022-07-26T06:01:39;0.77;;;0.77;;
53694;SDS011;39588;51.124;7.190;2022-07-26T06:04:05;0.20;;;0.20;;
53694;SDS011;39588;51.124;7.190;2022-07-26T06:06:32;1.73;;;0.67;;
53694;SDS011;39588;51.124;7.190;2022-07-26T06:08:58;0.47;;;0.47;;
53694;SDS011;39588;51.124;7.190;2022-07-26T06:11:24;0.43;;;0.43;;
53694;SDS011;39588;51.124;7.190;2022-07-26T06:13:49;1.20;;;1.00;;
53694;SDS011;39588;51.124;7.190;2022-07-26T06:16:15;0.63;;;0.63;;
53694;SDS011;39588;51.124;7.190;2022-07-26T06:18:41;1.20;;;0.63;;
53694;SDS011;39588;51.124;7.190;2022-07-26T06:21:07;1.17;;;0.77;;
53694;SDS011;39588;51.124;7.190;2022-07-26T06:23:33;1.27;;;1.00;;
53694;SDS011;39588;51.124;7.190;2022-07-26T06:25:58;1.20;;;1.10;;
53694;SDS011;39588;51.124;7.190;2022-07-26T06:28:24;2.20;;;0.87;;
53694;SDS011;39588;51.124;7.190;2022-07-26T06:30:50;2.80;;;1.47;;
53694;SDS011;39588;51.124;7.190;2022-07-26T06:33:15;0.40;;;0.40;;
53694;SDS011;39588;51.124;7.190;2022-07-26T06:35:41;0.30;;;0.30;;
53694;SDS011;39588;51.124;7.190;2022-07-26T06:38:07;0.63;;;0.63;;
53694;SDS011;39588;51.124;7.190;2022-07-26T06:40:33;0.57;;;0.57;;
53694;SDS011;39588;51.124;7.190;2022-07-26T06:43:00;1.23;;;1.03;;
53694;SDS011;39588;51.124;7.190;2022-07-26T06:45:27;5.03;;;0.93;;
53694;SDS011;39588;51.124;7.190;2022-07-26T06:47:53;4.70;;;2.10;;
53694;SDS011;39588;51.124;7.190;2022-07-26T06:50:20;0.90;;;0.90;;
53694;SDS011;39588;51.124;7.190;2022-07-26T06:52:46;1.97;;;1.87;;
53694;SDS011;39588;51.124;7.190;2022-07-26T06:55:12;0.40;;;0.40;;
53694;SDS011;39588;51.124;7.190;2022-07-26T06:57:38;0.77;;;0.77;;
53694;SDS011;39588;51.124;7.190;2022-07-26T07:00:05;0.77;;;0.77;;
53694;SDS011;39588;51.124;7.190;2022-07-26T07:02:32;1.07;;;1.07;;
53694;SDS011;39588;51.124;7.190;2022-07-26T07:04:59;1.93;;;1.47;;
53694;SDS011;39588;51.124;7.190;2022-07-26T07:07:25;0.77;;;0.77;;
53694;SDS011;39588;51.124;7.190;2022-07-26T07:09:51;1.60;;;1.50;;
53694;SDS011;39588;51.124;7.190;2022-07-26T07:12:17;2.03;;;0.80;;
53694;SDS011;39588;51.124;7.190;2022-07-26T07:14:42;1.80;;;0.87;;
53694;SDS011;39588;51.124;7.190;2022-07-26T07:17:08;0.57;;;0.57;;
53694;SDS011;39588;51.124;7.190;2022-07-26T07:19:35;2.87;;;0.90;;
53694;SDS011;39588;51.124;7.190;2022-07-26T07:22:02;1.50;;;1.33;;
53694;SDS011;39588;51.124;7.190;2022-07-26T07:24:28;3.33;;;1.70;;
53694;SDS011;39588;51.124;7.190;2022-07-26T07:26:53;0.93;;;0.80;;
53694;SDS011;39588;51.124;7.190;2022-07-26T07:29:19;3.57;;;1.27;;
53694;SDS011;39588;51.124;7.190;2022-07-26T07:31:45;0.80;;;0.80;;
53694;SDS011;39588;51.124;7.190;2022-07-26T07:34:12;2.83;;;1.10;;
53694;SDS011;39588;51.124;7.190;2022-07-26T07:36:38;1.43;;;1.33;;
53694;SDS011;39588;51.124;7.190;2022-07-26T07:39:04;0.80;;;0.80;;
53694;SDS011;39588;51.124;7.190;2022-07-26T07:41:29;1.77;;;0.93;;
53694;SDS011;39588;51.124;7.190;2022-07-26T07:43:58;1.23;;;1.23;;
53694;SDS011;39588;51.124;7.190;2022-07-26T07:46:26;1.33;;;1.33;;
53694;SDS011;39588;51.124;7.190;2022-07-26T07:48:52;1.30;;;0.80;;
53694;SDS011;39588;51.124;7.190;2022-07-26T07:51:18;1.10;;;1.00;;
53694;SDS011;39588;51.124;7.190;2022-07-26T07:53:43;0.97;;;0.93;;
53694;SDS011;39588;51.124;7.190;2022-07-26T07:56:09;0.93;;;0.93;;
53694;SDS011;39588;51.124;7.190;2022-07-26T07:58:35;0.70;;;0.70;;
53694;SDS011;39588;51.124;7.190;2022-07-26T08:01:00;1.30;;;1.30;;
53694;SDS011;39588;51.124;7.190;2022-07-26T08:03:26;1.10;;;1.10;;
53694;SDS011;39588;51.124;7.190;2022-07-26T08:05:52;2.10;;;1.90;;
53694;SDS011;39588;51.124;7.190;2022-07-26T08:08:18;1.00;;;1.00;;
53694;SDS011;39588;51.124;7.190;2022-07-26T08:10:44;1.13;;;1.13;;
53694;SDS011;39588;51.124;7.190;2022-07-26T08:13:10;2.83;;;1.33;;
53694;SDS011;39588;51.124;7.190;2022-07-26T08:15:35;0.90;;;0.90;;
53694;SDS011;39588;51.124;7.190;2022-07-26T08:18:01;1.50;;;1.20;;
53694;SDS011;39588;51.124;7.190;2022-07-26T08:20:26;1.30;;;1.30;;
53694;SDS011;39588;51.124;7.190;2022-07-26T08:22:52;0.60;;;0.60;;
53694;SDS011;39588;51.124;7.190;2022-07-26T08:25:18;3.27;;;1.67;;
53694;SDS011;39588;51.124;7.190;2022-07-26T08:27:44;0.77;;;0.77;;
53694;SDS011;39588;51.124;7.190;2022-07-26T08:30:09;1.00;;;1.00;;
53694;SDS011;39588;51.124;7.190;2022-07-26T08:32:35;0.80;;;0.80;;
53694;SDS011;39588;51.124;7.190;2022-07-26T08:35:01;1.20;;;1.20;;
53694;SDS011;39588;51.124;7.190;2022-07-26T08:37:27;1.00;;;1.00;;
53694;SDS011;39588;51.124;7.190;2022-07-26T08:39:53;1.77;;;1.67;;
53694;SDS011;39588;51.124;7.190;2022-07-26T08:42:19;8.17;;;2.23;;
53694;SDS011;39588;51.124;7.190;2022-07-26T08:44:49;1.37;;;1.30;;
53694;SDS011;39588;51.124;7.190;2022-07-26T08:47:17;6.57;;;1.77;;
53694;SDS011;39588;51.124;7.190;2022-07-26T08:49:45;1.00;;;1.00;;
53694;SDS011;39588;51.124;7.190;2022-07-26T08:52:11;2.03;;;1.83;;
53694;SDS011;39588;51.124;7.190;2022-07-26T08:54:41;1.30;;;1.30;;
53694;SDS011;39588;51.124;7.190;2022-07-26T08:57:08;2.47;;;2.27;;
53694;SDS011;39588;51.124;7.190;2022-07-26T08:59:34;1.53;;;1.43;;
53694;SDS011;39588;51.124;7.190;2022-07-26T09:02:00;3.07;;;2.00;;
53694;SDS011;39588;51.124;7.190;2022-07-26T09:04:29;1.47;;;1.33;;
53694;SDS011;39588;51.124;7.190;2022-07-26T09:06:58;5.53;;;1.37;;
53694;SDS011;39588;51.124;7.190;2022-07-26T09:09:27;2.00;;;1.43;;
53694;SDS011;39588;51.124;7.190;2022-07-26T09:11:54;2.30;;;1.90;;
53694;SDS011;39588;51.124;7.190;2022-07-26T09:14:21;1.73;;;1.63;;
53694;SDS011;39588;51.124;7.190;2022-07-26T09:16:59;1.50;;;1.47;;
53694;SDS011;39588;51.124;7.190;2022-07-26T09:19:25;2.47;;;1.63;;
53694;SDS011;39588;51.124;7.190;2022-07-26T09:21:52;1.60;;;1.50;;
53694;SDS011;39588;51.124;7.190;2022-07-26T09:24:33;1.10;;;1.10;;
53694;SDS011;39588;51.124;7.190;2022-07-26T09:27:03;2.50;;;1.37;;
53694;SDS011;39588;51.124;7.190;2022-07-26T09:29:40;1.77;;;1.67;;
53694;SDS011;39588;51.124;7.190;2022-07-26T09:32:08;2.47;;;1.87;;
53694;SDS011;39588;51.124;7.190;2022-07-26T09:34:35;3.10;;;2.90;;
53694;SDS011;39588;51.124;7.190;2022-07-26T09:37:00;1.83;;;1.73;;
53694;SDS011;39588;51.124;7.190;2022-07-26T09:39:26;2.83;;;1.33;;
53694;SDS011;39588;51.124;7.190;2022-07-26T09:41:52;1.90;;;1.33;;
53694;SDS011;39588;51.124;7.190;2022-07-26T09:44:25;1.80;;;1.70;;
53694;SDS011;39588;51.124;7.190;2022-07-26T09:46:54;1.60;;;1.50;;
53694;SDS011;39588;51.124;7.190;2022-07-26T09:49:22;1.13;;;1.03;;
53694;SDS011;39588;51.124;7.190;2022-07-26T09:51:50;3.40;;;1.53;;
53694;SDS011;39588;51.124;7.190;2022-07-26T09:57:11;1.37;;;1.37;;
53694;SDS011;39588;51.124;7.190;2022-07-26T09:59:40;1.17;;;1.17;;
53694;SDS011;39588;51.124;7.190;2022-07-26T10:02:06;5.07;;;1.43;;
53694;SDS011;39588;51.124;7.190;2022-07-26T10:04:32;1.40;;;1.30;;
53694;SDS011;39588;51.124;7.190;2022-07-26T10:06:58;1.13;;;1.13;;
53694;SDS011;39588;51.124;7.190;2022-07-26T10:09:27;1.03;;;1.03;;
53694;SDS011;39588;51.124;7.190;2022-07-26T10:12:01;1.47;;;1.00;;
53694;SDS011;39588;51.124;7.190;2022-07-26T10:14:46;2.50;;;1.40;;
53694;SDS011;39588;51.124;7.190;2022-07-26T10:17:37;0.80;;;0.80;;
53694;SDS011;39588;51.124;7.190;2022-07-26T10:20:06;1.30;;;1.10;;
53694;SDS011;39588;51.124;7.190;2022-07-26T10:27:50;1.60;;;1.20;;
53694;SDS011;39588;51.124;7.190;2022-07-26T10:30:24;1.07;;;1.07;;
53694;SDS011;39588;51.124;7.190;2022-07-26T10:32:58;1.37;;;1.27;;
53694;SDS011;39588;51.124;7.190;2022-07-26T10:38:06;1.50;;;1.40;;
53694;SDS011;39588;51.124;7.190;2022-07-26T10:40:57;4.33;;;1.50;;
53694;SDS011;39588;51.124;7.190;2022-07-26T10:43:27;0.90;;;0.90;;
53694;SDS011;39588;51.124;7.190;2022-07-26T10:51:26;0.93;;;0.93;;
53694;SDS011;39588;51.124;7.190;2022-07-26T10:54:01;1.43;;;1.30;;
53694;SDS011;39588;51.124;7.190;2022-07-26T10:56:29;1.43;;;0.97;;
53694;SDS011;39588;51.124;7.190;2022-07-26T10:58:54;4.00;;;1.00;;
53694;SDS011;39588;51.124;7.190;2022-07-26T11:01:21;0.90;;;0.90;;
53694;SDS011;39588;51.124;7.190;2022-07-26T11:03:47;0.80;;;0.80;;
53694;SDS011;39588;51.124;7.190;2022-07-26T11:06:13;0.97;;;0.97;;
53694;SDS011;39588;51.124;7.190;2022-07-26T11:08:41;0.93;;;0.93;;
53694;SDS011;39588;51.124;7.190;2022-07-26T11:11:08;0.57;;;0.57;;
53694;SDS011;39588;51.124;7.190;2022-07-26T11:13:33;1.40;;;1.33;;
53694;SDS011;39588;51.124;7.190;2022-07-26T11:16:01;0.70;;;0.70;;
53694;SDS011;39588;51.124;7.190;2022-07-26T11:18:36;0.93;;;0.93;;
53694;SDS011;39588;51.124;7.190;2022-07-26T11:21:10;1.00;;;1.00;;
53694;SDS011;39588;51.124;7.190;2022-07-26T11:23:40;0.90;;;0.90;;
53694;SDS011;39588;51.124;7.190;2022-07-26T11:26:17;1.07;;;0.90;;
53694;SDS011;39588;51.124;7.190;2022-07-26T11:28:45;0.70;;;0.50;;
53694;SDS011;39588;51.124;7.190;2022-07-26T11:31:26;1.60;;;0.80;;
53694;SDS011;39588;51.124;7.190;2022-07-26T11:34:03;0.67;;;0.67;;
53694;SDS011;39588;51.124;7.190;2022-07-26T11:36:34;0.60;;;0.60;;
53694;SDS011;39588;51.124;7.190;2022-07-26T11:39:00;1.40;;;1.40;;
53694;SDS011;39588;51.124;7.190;2022-07-26T11:41:28;0.93;;;0.90;;
53694;SDS011;39588;51.124;7.190;2022-07-26T11:43:54;1.97;;;1.07;;
53694;SDS011;39588;51.124;7.190;2022-07-26T11:46:21;0.57;;;0.57;;
53694;SDS011;39588;51.124;7.190;2022-07-26T11:48:48;0.67;;;0.67;;
53694;SDS011;39588;51.124;7.190;2022-07-26T11:51:25;1.00;;;1.00;;
53694;SDS011;39588;51.124;7.190;2022-07-26T11:53:50;1.10;;;0.77;;
53694;SDS011;39588;51.124;7.190;2022-07-26T11:56:24;0.57;;;0.57;;
53694;SDS011;39588;51.124;7.190;2022-07-26T11:58:52;0.90;;;0.90;;
53694;SDS011;39588;51.124;7.190;2022-07-26T12:01:21;1.97;;;1.80;;
53694;SDS011;39588;51.124;7.190;2022-07-26T12:03:48;0.87;;;0.87;;
53694;SDS011;39588;51.124;7.190;2022-07-26T12:06:16;1.10;;;1.00;;
53694;SDS011;39588;51.124;7.190;2022-07-26T12:09:05;1.07;;;1.07;;
53694;SDS011;39588;51.124;7.190;2022-07-26T12:11:37;0.40;;;0.40;;
53694;SDS011;39588;51.124;7.190;2022-07-26T12:14:05;0.47;;;0.47;;
53694;SDS011;39588;51.124;7.190;2022-07-26T12:16:46;0.87;;;0.83;;
53694;SDS011;39588;51.124;7.190;2022-07-26T12:21:46;0.60;;;0.60;;
53694;SDS011;39588;51.124;7.190;2022-07-26T12:27:13;1.13;;;0.67;;
53694;SDS011;39588;51.124;7.190;2022-07-26T12:29:48;0.40;;;0.40;;
53694;SDS011;39588;51.124;7.190;2022-07-26T12:32:16;0.67;;;0.67;;
53694;SDS011;39588;51.124;7.190;2022-07-26T12:37:29;0.40;;;0.40;;
53694;SDS011;39588;51.124;7.190;2022-07-26T12:40:06;1.07;;;0.40;;
53694;SDS011;39588;51.124;7.190;2022-07-26T12:42:51;0.40;;;0.40;;
53694;SDS011;39588;51.124;7.190;2022-07-26T12:45:26;0.40;;;0.40;;
53694;SDS011;39588;51.124;7.190;2022-07-26T12:47:54;0.60;;;0.60;;
53694;SDS011;39588;51.124;7.190;2022-07-26T12:50:22;0.50;;;0.50;;
53694;SDS011;39588;51.124;7.190;2022-07-26T12:52:50;0.73;;;0.73;;
53694;SDS011;39588;51.124;7.190;2022-07-26T12:55:17;0.67;;;0.67;;
53694;SDS011;39588;51.124;7.190;2022-07-26T12:57:45;0.60;;;0.60;;
53694;SDS011;39588;51.124;7.190;2022-07-26T13:00:12;0.10;;;0.10;;
53694;SDS011;39588;51.124;7.190;2022-07-26T13:02:42;0.30;;;0.30;;
53694;SDS011;39588;51.124;7.190;2022-07-26T13:05:09;0.50;;;0.50;;
53694;SDS011;39588;51.124;7.190;2022-07-26T13:07:35;0.60;;;0.60;;
53694;SDS011;39588;51.124;7.190;2022-07-26T13:10:02;0.70;;;0.70;;
53694;SDS011;39588;51.124;7.190;2022-07-26T13:12:29;0.40;;;0.40;;
53694;SDS011;39588;51.124;7.190;2022-07-26T13:14:55;0.40;;;0.40;;
53694;SDS011;39588;51.124;7.190;2022-07-26T13:17:21;0.30;;;0.30;;
53694;SDS011;39588;51.124;7.190;2022-07-26T13:19:46;0.30;;;0.30;;
53694;SDS011;39588;51.124;7.190;2022-07-26T13:22:12;0.57;;;0.57;;
53694;SDS011;39588;51.124;7.190;2022-07-26T13:24:38;0.50;;;0.50;;
53694;SDS011;39588;51.124;7.190;2022-07-26T13:27:05;0.33;;;0.33;;
53694;SDS011;39588;51.124;7.190;2022-07-26T13:29:32;0.70;;;0.70;;
53694;SDS011;39588;51.124;7.190;2022-07-26T13:31:58;0.50;;;0.50;;
53694;SDS011;39588;51.124;7.190;2022-07-26T13:34:24;0.40;;;0.40;;
53694;SDS011;39588;51.124;7.190;2022-07-26T13:36:50;0.47;;;0.47;;
53694;SDS011;39588;51.124;7.190;2022-07-26T13:39:16;0.80;;;0.80;;
53694;SDS011;39588;51.124;7.190;2022-07-26T13:41:42;1.07;;;0.70;;
53694;SDS011;39588;51.124;7.190;2022-07-26T13:44:09;0.83;;;0.83;;
53694;SDS011;39588;51.124;7.190;2022-07-26T13:46:35;0.60;;;0.60;;
53694;SDS011;39588;51.124;7.190;2022-07-26T13:49:01;0.40;;;0.40;;
53694;SDS011;39588;51.124;7.190;2022-07-26T13:51:29;0.67;;;0.67;;
53694;SDS011;39588;51.124;7.190;2022-07-26T13:54:16;0.40;;;0.40;;
53694;SDS011;39588;51.124;7.190;2022-07-26T13:56:43;0.30;;;0.30;;
53694;SDS011;39588;51.124;7.190;2022-07-26T13:59:10;0.50;;;0.50;;
53694;SDS011;39588;51.124;7.190;2022-07-26T14:01:36;3.30;;;0.67;;
53694;SDS011;39588;51.124;7.190;2022-07-26T14:04:03;0.50;;;0.50;;
53694;SDS011;39588;51.124;7.190;2022-07-26T14:06:30;0.70;;;0.70;;
53694;SDS011;39588;51.124;7.190;2022-07-26T14:08:56;0.30;;;0.30;;
53694;SDS011;39588;51.124;7.190;2022-07-26T14:11:23;0.40;;;0.40;;
53694;SDS011;39588;51.124;7.190;2022-07-26T14:13:49;0.50;;;0.50;;
53694;SDS011;39588;51.124;7.190;2022-07-26T14:16:15;5.07;;;0.80;;
53694;SDS011;39588;51.124;7.190;2022-07-26T14:18:40;0.43;;;0.43;;
53694;SDS011;39588;51.124;7.190;2022-07-26T14:21:06;0.37;;;0.37;;
53694;SDS011;39588;51.124;7.190;2022-07-26T14:23:32;0.30;;;0.30;;
53694;SDS011;39588;51.124;7.190;2022-07-26T14:25:58;0.50;;;0.50;;
53694;SDS011;39588;51.124;7.190;2022-07-26T14:28:24;0.23;;;0.23;;
53694;SDS011;39588;51.124;7.190;2022-07-26T14:30:50;0.40;;;0.40;;
53694;SDS011;39588;51.124;7.190;2022-07-26T14:33:16;0.57;;;0.57;;
53694;SDS011;39588;51.124;7.190;2022-07-26T14:35:42;0.60;;;0.60;;
53694;SDS011;39588;51.124;7.190;2022-07-26T14:38:09;0.50;;;0.50;;
53694;SDS011;39588;51.124;7.190;2022-07-26T14:40:35;0.40;;;0.40;;
53694;SDS011;39588;51.124;7.190;2022-07-26T14:43:01;0.40;;;0.40;;
53694;SDS011;39588;51.124;7.190;2022-07-26T14:45:27;0.50;;;0.50;;
53694;SDS011;39588;51.124;7.190;2022-07-26T14:47:53;0.20;;;0.20;;
53694;SDS011;39588;51.124;7.190;2022-07-26T14:50:19;0.30;;;0.30;;
53694;SDS011;39588;51.124;7.190;2022-07-26T14:52:50;0.57;;;0.57;;
53694;SDS011;39588;51.124;7.190;2022-07-26T14:55:16;0.60;;;0.60;;
53694;SDS011;39588;51.124;7.190;2022-07-26T14:57:42;0.30;;;0.30;;
53694;SDS011;39588;51.124;7.190;2022-07-26T15:00:08;0.40;;;0.40;;
53694;SDS011;39588;51.124;7.190;2022-07-26T15:02:37;0.30;;;0.30;;
53694;SDS011;39588;51.124;7.190;2022-07-26T15:05:10;0.50;;;0.50;;
53694;SDS011;39588;51.124;7.190;2022-07-26T15:07:37;0.53;;;0.53;;
53694;SDS011;39588;51.124;7.190;2022-07-26T15:10:04;0.63;;;0.63;;
53694;SDS011;39588;51.124;7.190;2022-07-26T15:12:32;0.47;;;0.47;;